sensor_id;sensor_type;location;lat;lon;timestamp;temperature;humidity
43991;DHT22;29654;50.784;20.604;2023-06-22T00:03:35;26.30;54.60
43991;DHT22;29654;50.784;20.604;2023-06-22T00:08:38;26.30;54.70
43991;DHT22;29654;50.784;20.604;2023-06-22T00:13:40;26.30;54.60
43991;DHT22;29654;50.784;20.604;2023-06-22T00:18:44;26.30;54.50
43991;DHT22;29654;50.784;20.604;2023-06-22T00:23:48;26.30;54.70
43991;DHT22;29654;50.784;20.604;2023-06-22T00:28:50;26.30;54.60
43991;DHT22;29654;50.784;20.604;2023-06-22T00:33:54;26.30;54.60
43991;DHT22;29654;50.784;20.604;2023-06-22T00:38:56;26.30;54.80
43991;DHT22;29654;50.784;20.604;2023-06-22T00:43:59;26.20;54.70
43991;DHT22;29654;50.784;20.604;2023-06-22T00:49:03;26.20;54.80
43991;DHT22;29654;50.784;20.604;2023-06-22T00:54:06;26.20;54.90
43991;DHT22;29654;50.784;20.604;2023-06-22T00:59:09;26.20;54.90
43991;DHT22;29654;50.784;20.604;2023-06-22T01:04:15;26.20;54.90
43991;DHT22;29654;50.784;20.604;2023-06-22T01:09:22;26.20;55.00
43991;DHT22;29654;50.784;20.604;2023-06-22T01:14:39;26.20;55.00
43991;DHT22;29654;50.784;20.604;2023-06-22T01:19:48;26.20;55.20
43991;DHT22;29654;50.784;20.604;2023-06-22T01:25:05;26.10;55.00
43991;DHT22;29654;50.784;20.604;2023-06-22T01:30:15;26.10;55.20
43991;DHT22;29654;50.784;20.604;2023-06-22T01:35:19;26.00;55.00
43991;DHT22;29654;50.784;20.604;2023-06-22T01:40:23;25.90;54.70
43991;DHT22;29654;50.784;20.604;2023-06-22T01:45:28;25.90;54.80
43991;DHT22;29654;50.784;20.604;2023-06-22T01:50:31;25.90;55.00
43991;DHT22;29654;50.784;20.604;2023-06-22T01:55:34;25.80;54.80
43991;DHT22;29654;50.784;20.604;2023-06-22T02:00:41;25.70;54.90
43991;DHT22;29654;50.784;20.604;2023-06-22T02:05:50;25.70;55.30
43991;DHT22;29654;50.784;20.604;2023-06-22T02:10:58;25.60;55.00
43991;DHT22;29654;50.784;20.604;2023-06-22T02:16:04;25.60;55.10
43991;DHT22;29654;50.784;20.604;2023-06-22T02:21:07;25.60;55.20
43991;DHT22;29654;50.784;20.604;2023-06-22T02:26:10;25.50;55.10
43991;DHT22;29654;50.784;20.604;2023-06-22T02:31:14;25.50;55.30
43991;DHT22;29654;50.784;20.604;2023-06-22T02:36:16;25.50;55.40
43991;DHT22;29654;50.784;20.604;2023-06-22T02:41:23;25.40;55.40
43991;DHT22;29654;50.784;20.604;2023-06-22T02:46:27;25.40;55.50
43991;DHT22;29654;50.784;20.604;2023-06-22T02:51:32;25.40;55.70
43991;DHT22;29654;50.784;20.604;2023-06-22T02:56:36;25.40;55.60
43991;DHT22;29654;50.784;20.604;2023-06-22T03:01:43;25.40;55.70
43991;DHT22;29654;50.784;20.604;2023-06-22T03:06:56;25.40;55.90
43991;DHT22;29654;50.784;20.604;2023-06-22T03:12:03;25.40;55.80
43991;DHT22;29654;50.784;20.604;2023-06-22T03:17:18;25.50;55.90
43991;DHT22;29654;50.784;20.604;2023-06-22T03:22:20;25.50;56.00
43991;DHT22;29654;50.784;20.604;2023-06-22T03:27:24;25.50;56.00
43991;DHT22;29654;50.784;20.604;2023-06-22T03:32:28;25.60;56.10
43991;DHT22;29654;50.784;20.604;2023-06-22T03:37:30;25.60;56.10
43991;DHT22;29654;50.784;20.604;2023-06-22T03:42:33;25.60;56.00
43991;DHT22;29654;50.784;20.604;2023-06-22T03:47:38;25.70;56.20
43991;DHT22;29654;50.784;20.604;2023-06-22T03:52:41;25.80;56.30
43991;DHT22;29654;50.784;20.604;2023-06-22T03:57:43;25.90;56.20
43991;DHT22;29654;50.784;20.604;2023-06-22T04:02:48;25.90;56.20
43991;DHT22;29654;50.784;20.604;2023-06-22T04:07:57;26.00;56.50
43991;DHT22;29654;50.784;20.604;2023-06-22T04:13:00;26.10;56.60
43991;DHT22;29654;50.784;20.604;2023-06-22T04:18:04;26.20;56.80
43991;DHT22;29654;50.784;20.604;2023-06-22T04:23:07;26.50;57.40
43991;DHT22;29654;50.784;20.604;2023-06-22T04:28:09;26.90;57.80
43991;DHT22;29654;50.784;20.604;2023-06-22T04:33:15;27.40;57.70
43991;DHT22;29654;50.784;20.604;2023-06-22T04:38:17;27.90;58.30
43991;DHT22;29654;50.784;20.604;2023-06-22T04:43:22;28.70;58.60
43991;DHT22;29654;50.784;20.604;2023-06-22T04:48:26;29.70;58.30
43991;DHT22;29654;50.784;20.604;2023-06-22T04:53:33;30.80;57.30
43991;DHT22;29654;50.784;20.604;2023-06-22T04:58:35;31.80;55.80
43991;DHT22;29654;50.784;20.604;2023-06-22T05:03:39;32.70;53.20
43991;DHT22;29654;50.784;20.604;2023-06-22T05:08:43;33.10;50.60
43991;DHT22;29654;50.784;20.604;2023-06-22T05:13:45;33.10;49.50
43991;DHT22;29654;50.784;20.604;2023-06-22T05:18:50;32.90;48.80
43991;DHT22;29654;50.784;20.604;2023-06-22T05:23:57;32.60;48.50
43991;DHT22;29654;50.784;20.604;2023-06-22T05:29:02;32.40;48.70
43991;DHT22;29654;50.784;20.604;2023-06-22T05:34:06;32.10;48.80
43991;DHT22;29654;50.784;20.604;2023-06-22T05:39:12;31.80;49.10
43991;DHT22;29654;50.784;20.604;2023-06-22T05:44:15;31.60;49.30
43991;DHT22;29654;50.784;20.604;2023-06-22T05:49:19;31.60;49.50
43991;DHT22;29654;50.784;20.604;2023-06-22T05:54:22;31.40;49.80
43991;DHT22;29654;50.784;20.604;2023-06-22T05:59:25;31.40;50.00
43991;DHT22;29654;50.784;20.604;2023-06-22T06:04:29;31.40;49.70
43991;DHT22;29654;50.784;20.604;2023-06-22T06:09:31;31.30;49.60
43991;DHT22;29654;50.784;20.604;2023-06-22T06:14:34;31.20;49.70
43991;DHT22;29654;50.784;20.604;2023-06-22T06:19:38;31.10;49.80
43991;DHT22;29654;50.784;20.604;2023-06-22T06:24:40;31.00;49.90
43991;DHT22;29654;50.784;20.604;2023-06-22T06:29:43;30.90;49.90
43991;DHT22;29654;50.784;20.604;2023-06-22T06:34:47;30.80;49.80
43991;DHT22;29654;50.784;20.604;2023-06-22T06:39:50;30.80;50.40
43991;DHT22;29654;50.784;20.604;2023-06-22T06:44:53;30.70;50.60
43991;DHT22;29654;50.784;20.604;2023-06-22T06:49:57;30.80;51.10
43991;DHT22;29654;50.784;20.604;2023-06-22T06:55:00;30.90;50.90
43991;DHT22;29654;50.784;20.604;2023-06-22T07:00:06;31.10;51.00
43991;DHT22;29654;50.784;20.604;2023-06-22T07:05:13;31.20;50.80
43991;DHT22;29654;50.784;20.604;2023-06-22T07:10:16;31.30;50.60
43991;DHT22;29654;50.784;20.604;2023-06-22T07:15:19;31.40;50.40
43991;DHT22;29654;50.784;20.604;2023-06-22T07:20:23;31.50;50.30
43991;DHT22;29654;50.784;20.604;2023-06-22T07:25:26;31.60;50.40
43991;DHT22;29654;50.784;20.604;2023-06-22T07:30:29;31.60;50.10
43991;DHT22;29654;50.784;20.604;2023-06-22T07:35:33;31.70;49.90
43991;DHT22;29654;50.784;20.604;2023-06-22T07:40:36;31.80;49.60
43991;DHT22;29654;50.784;20.604;2023-06-22T07:45:38;31.90;49.50
43991;DHT22;29654;50.784;20.604;2023-06-22T07:50:44;31.90;48.90
43991;DHT22;29654;50.784;20.604;2023-06-22T07:55:46;31.90;48.80
43991;DHT22;29654;50.784;20.604;2023-06-22T08:00:49;31.90;48.50
43991;DHT22;29654;50.784;20.604;2023-06-22T08:05:54;31.90;48.50
43991;DHT22;29654;50.784;20.604;2023-06-22T08:10:56;31.90;48.10
43991;DHT22;29654;50.784;20.604;2023-06-22T08:15:59;31.90;48.30
43991;DHT22;29654;50.784;20.604;2023-06-22T08:21:02;32.00;48.10
43991;DHT22;29654;50.784;20.604;2023-06-22T08:26:05;32.10;48.00
43991;DHT22;29654;50.784;20.604;2023-06-22T08:31:08;32.20;47.80
43991;DHT22;29654;50.784;20.604;2023-06-22T08:36:16;32.30;47.50
43991;DHT22;29654;50.784;20.604;2023-06-22T08:41:18;32.40;47.30
43991;DHT22;29654;50.784;20.604;2023-06-22T08:46:23;32.50;47.40
43991;DHT22;29654;50.784;20.604;2023-06-22T08:51:32;32.70;47.10
43991;DHT22;29654;50.784;20.604;2023-06-22T08:56:35;32.70;46.60
43991;DHT22;29654;50.784;20.604;2023-06-22T09:01:37;32.70;46.10
43991;DHT22;29654;50.784;20.604;2023-06-22T09:06:41;32.70;46.20
43991;DHT22;29654;50.784;20.604;2023-06-22T09:11:47;32.60;45.90
43991;DHT22;29654;50.784;20.604;2023-06-22T09:16:50;32.50;45.10
43991;DHT22;29654;50.784;20.604;2023-06-22T09:21:54;32.50;45.10
43991;DHT22;29654;50.784;20.604;2023-06-22T09:26:56;32.40;45.50
43991;DHT22;29654;50.784;20.604;2023-06-22T09:31:59;32.50;45.20
43991;DHT22;29654;50.784;20.604;2023-06-22T09:37:04;32.50;45.20
43991;DHT22;29654;50.784;20.604;2023-06-22T09:42:07;32.50;45.30
43991;DHT22;29654;50.784;20.604;2023-06-22T09:47:10;32.50;45.10
43991;DHT22;29654;50.784;20.604;2023-06-22T09:52:15;32.60;45.30
43991;DHT22;29654;50.784;20.604;2023-06-22T09:57:17;32.60;45.70
43991;DHT22;29654;50.784;20.604;2023-06-22T10:02:20;32.70;44.60
43991;DHT22;29654;50.784;20.604;2023-06-22T10:07:24;32.70;44.20
43991;DHT22;29654;50.784;20.604;2023-06-22T10:12:27;32.70;44.30
43991;DHT22;29654;50.784;20.604;2023-06-22T10:17:30;32.70;44.00
43991;DHT22;29654;50.784;20.604;2023-06-22T10:22:33;32.70;43.80
43991;DHT22;29654;50.784;20.604;2023-06-22T10:27:36;32.70;43.50
43991;DHT22;29654;50.784;20.604;2023-06-22T10:32:41;32.70;43.70
43991;DHT22;29654;50.784;20.604;2023-06-22T10:37:46;32.70;43.70
43991;DHT22;29654;50.784;20.604;2023-06-22T10:42:49;32.70;43.90
43991;DHT22;29654;50.784;20.604;2023-06-22T10:47:51;32.70;43.60
43991;DHT22;29654;50.784;20.604;2023-06-22T10:52:57;32.70;42.80
43991;DHT22;29654;50.784;20.604;2023-06-22T10:57:59;32.70;42.80
43991;DHT22;29654;50.784;20.604;2023-06-22T11:03:02;32.70;43.30
43991;DHT22;29654;50.784;20.604;2023-06-22T11:08:06;32.70;42.40
43991;DHT22;29654;50.784;20.604;2023-06-22T11:13:08;32.70;42.20
43991;DHT22;29654;50.784;20.604;2023-06-22T11:18:11;32.70;42.00
43991;DHT22;29654;50.784;20.604;2023-06-22T11:23:15;32.70;42.00
43991;DHT22;29654;50.784;20.604;2023-06-22T11:28:18;32.70;41.50
43991;DHT22;29654;50.784;20.604;2023-06-22T11:33:21;32.70;42.10
43991;DHT22;29654;50.784;20.604;2023-06-22T11:38:25;32.70;42.10
43991;DHT22;29654;50.784;20.604;2023-06-22T11:43:28;32.90;41.70
43991;DHT22;29654;50.784;20.604;2023-06-22T11:48:30;32.90;41.60
43991;DHT22;29654;50.784;20.604;2023-06-22T11:53:35;32.90;41.40
43991;DHT22;29654;50.784;20.604;2023-06-22T11:58:38;32.90;41.00
43991;DHT22;29654;50.784;20.604;2023-06-22T12:03:40;33.00;41.00
43991;DHT22;29654;50.784;20.604;2023-06-22T12:08:45;32.90;41.30
43991;DHT22;29654;50.784;20.604;2023-06-22T12:13:48;33.00;40.70
43991;DHT22;29654;50.784;20.604;2023-06-22T12:18:50;33.00;40.90
43991;DHT22;29654;50.784;20.604;2023-06-22T12:23:54;33.10;39.50
43991;DHT22;29654;50.784;20.604;2023-06-22T12:28:57;33.20;39.60
43991;DHT22;29654;50.784;20.604;2023-06-22T12:34:00;33.20;40.00
43991;DHT22;29654;50.784;20.604;2023-06-22T12:39:04;33.20;40.30
43991;DHT22;29654;50.784;20.604;2023-06-22T12:44:06;33.20;39.90
43991;DHT22;29654;50.784;20.604;2023-06-22T12:49:09;33.20;40.00
43991;DHT22;29654;50.784;20.604;2023-06-22T12:54:13;33.30;40.00
43991;DHT22;29654;50.784;20.604;2023-06-22T12:59:15;33.30;38.90
43991;DHT22;29654;50.784;20.604;2023-06-22T13:04:18;33.40;39.00
43991;DHT22;29654;50.784;20.604;2023-06-22T13:09:22;33.40;38.70
43991;DHT22;29654;50.784;20.604;2023-06-22T13:14:24;33.50;39.10
43991;DHT22;29654;50.784;20.604;2023-06-22T13:19:29;33.60;38.80
43991;DHT22;29654;50.784;20.604;2023-06-22T13:24:38;33.60;38.30
43991;DHT22;29654;50.784;20.604;2023-06-22T13:29:40;33.50;38.60
43991;DHT22;29654;50.784;20.604;2023-06-22T13:34:43;33.50;38.80
43991;DHT22;29654;50.784;20.604;2023-06-22T13:39:47;33.50;38.80
43991;DHT22;29654;50.784;20.604;2023-06-22T13:44:50;33.60;38.40
43991;DHT22;29654;50.784;20.604;2023-06-22T13:49:52;33.70;38.80
43991;DHT22;29654;50.784;20.604;2023-06-22T13:54:57;33.70;38.80
43991;DHT22;29654;50.784;20.604;2023-06-22T14:00:00;33.70;38.00
43991;DHT22;29654;50.784;20.604;2023-06-22T14:05:12;33.70;38.10
43991;DHT22;29654;50.784;20.604;2023-06-22T14:10:16;33.60;37.90
43991;DHT22;29654;50.784;20.604;2023-06-22T14:15:19;33.60;38.40
43991;DHT22;29654;50.784;20.604;2023-06-22T14:20:22;33.70;38.00
43991;DHT22;29654;50.784;20.604;2023-06-22T14:25:26;33.70;37.90
43991;DHT22;29654;50.784;20.604;2023-06-22T14:30:29;33.70;37.90
43991;DHT22;29654;50.784;20.604;2023-06-22T14:35:31;33.70;37.90
43991;DHT22;29654;50.784;20.604;2023-06-22T14:40:35;33.80;37.70
43991;DHT22;29654;50.784;20.604;2023-06-22T14:45:38;33.80;37.80
43991;DHT22;29654;50.784;20.604;2023-06-22T14:50:40;33.80;37.70
43991;DHT22;29654;50.784;20.604;2023-06-22T14:55:44;33.90;37.30
43991;DHT22;29654;50.784;20.604;2023-06-22T15:00:47;33.90;37.10
43991;DHT22;29654;50.784;20.604;2023-06-22T15:05:50;33.90;37.20
43991;DHT22;29654;50.784;20.604;2023-06-22T15:10:55;33.90;37.00
43991;DHT22;29654;50.784;20.604;2023-06-22T15:16:00;33.90;36.50
43991;DHT22;29654;50.784;20.604;2023-06-22T15:21:04;33.80;36.50
43991;DHT22;29654;50.784;20.604;2023-06-22T15:26:08;33.70;36.70
43991;DHT22;29654;50.784;20.604;2023-06-22T15:31:11;33.70;36.50
43991;DHT22;29654;50.784;20.604;2023-06-22T15:36:13;33.80;36.70
43991;DHT22;29654;50.784;20.604;2023-06-22T15:41:17;33.80;36.70
43991;DHT22;29654;50.784;20.604;2023-06-22T15:46:20;33.90;36.50
43991;DHT22;29654;50.784;20.604;2023-06-22T15:51:22;33.90;36.40
43991;DHT22;29654;50.784;20.604;2023-06-22T15:56:26;33.80;36.50
43991;DHT22;29654;50.784;20.604;2023-06-22T16:01:29;33.80;36.50
43991;DHT22;29654;50.784;20.604;2023-06-22T16:06:32;33.80;36.70
43991;DHT22;29654;50.784;20.604;2023-06-22T16:11:36;33.90;36.60
43991;DHT22;29654;50.784;20.604;2023-06-22T16:16:38;33.90;36.30
43991;DHT22;29654;50.784;20.604;2023-06-22T16:21:41;33.90;36.50
43991;DHT22;29654;50.784;20.604;2023-06-22T16:26:45;33.90;36.40
43991;DHT22;29654;50.784;20.604;2023-06-22T16:31:48;33.80;36.50
43991;DHT22;29654;50.784;20.604;2023-06-22T16:36:51;33.80;36.50
43991;DHT22;29654;50.784;20.604;2023-06-22T16:41:55;33.80;36.50
43991;DHT22;29654;50.784;20.604;2023-06-22T16:46:58;33.80;36.50
43991;DHT22;29654;50.784;20.604;2023-06-22T16:52:03;33.80;36.40
43991;DHT22;29654;50.784;20.604;2023-06-22T16:57:08;33.80;36.10
43991;DHT22;29654;50.784;20.604;2023-06-22T17:02:16;33.80;35.80
43991;DHT22;29654;50.784;20.604;2023-06-22T17:07:20;33.90;35.50
43991;DHT22;29654;50.784;20.604;2023-06-22T17:12:25;33.90;35.90
43991;DHT22;29654;50.784;20.604;2023-06-22T17:17:30;33.90;35.70
43991;DHT22;29654;50.784;20.604;2023-06-22T17:22:34;33.80;35.60
43991;DHT22;29654;50.784;20.604;2023-06-22T17:27:40;33.80;36.00
43991;DHT22;29654;50.784;20.604;2023-06-22T17:32:46;33.70;35.90
43991;DHT22;29654;50.784;20.604;2023-06-22T17:37:50;33.70;36.10
43991;DHT22;29654;50.784;20.604;2023-06-22T17:43:03;33.70;36.00
43991;DHT22;29654;50.784;20.604;2023-06-22T17:48:08;33.70;35.60
43991;DHT22;29654;50.784;20.604;2023-06-22T17:53:12;33.70;36.50
43991;DHT22;29654;50.784;20.604;2023-06-22T17:58:16;33.70;36.90
43991;DHT22;29654;50.784;20.604;2023-06-22T18:03:23;33.70;35.80
43991;DHT22;29654;50.784;20.604;2023-06-22T18:08:27;33.60;37.50
43991;DHT22;29654;50.784;20.604;2023-06-22T18:13:33;33.50;37.80
43991;DHT22;29654;50.784;20.604;2023-06-22T18:18:37;33.30;38.10
43991;DHT22;29654;50.784;20.604;2023-06-22T18:23:41;33.10;38.10
43991;DHT22;29654;50.784;20.604;2023-06-22T18:28:46;32.90;38.30
43991;DHT22;29654;50.784;20.604;2023-06-22T18:33:51;32.60;38.60
43991;DHT22;29654;50.784;20.604;2023-06-22T18:38:55;32.40;38.70
43991;DHT22;29654;50.784;20.604;2023-06-22T18:44:02;32.20;38.90
43991;DHT22;29654;50.784;20.604;2023-06-22T18:49:11;31.90;39.10
43991;DHT22;29654;50.784;20.604;2023-06-22T18:54:19;31.70;39.30
43991;DHT22;29654;50.784;20.604;2023-06-22T18:59:43;31.40;39.60
43991;DHT22;29654;50.784;20.604;2023-06-22T19:04:47;31.20;39.80
43991;DHT22;29654;50.784;20.604;2023-06-22T19:10:21;30.90;39.60
43991;DHT22;29654;50.784;20.604;2023-06-22T19:15:31;30.60;40.20
43991;DHT22;29654;50.784;20.604;2023-06-22T19:20:34;30.40;40.50
43991;DHT22;29654;50.784;20.604;2023-06-22T19:25:37;30.20;40.40
43991;DHT22;29654;50.784;20.604;2023-06-22T19:30:52;29.90;40.60
43991;DHT22;29654;50.784;20.604;2023-06-22T19:35:56;29.70;41.10
43991;DHT22;29654;50.784;20.604;2023-06-22T19:41:06;29.40;41.00
43991;DHT22;29654;50.784;20.604;2023-06-22T19:46:12;29.20;41.30
43991;DHT22;29654;50.784;20.604;2023-06-22T19:51:14;29.00;41.50
43991;DHT22;29654;50.784;20.604;2023-06-22T19:56:19;28.70;41.50
43991;DHT22;29654;50.784;20.604;2023-06-22T20:01:24;28.50;42.00
43991;DHT22;29654;50.784;20.604;2023-06-22T20:06:26;28.30;42.10
43991;DHT22;29654;50.784;20.604;2023-06-22T20:11:30;28.10;42.20
43991;DHT22;29654;50.784;20.604;2023-06-22T20:16:46;28.00;42.50
43991;DHT22;29654;50.784;20.604;2023-06-22T20:21:54;27.80;43.20
43991;DHT22;29654;50.784;20.604;2023-06-22T20:26:58;27.60;42.80
43991;DHT22;29654;50.784;20.604;2023-06-22T20:32:05;27.50;43.20
43991;DHT22;29654;50.784;20.604;2023-06-22T20:37:09;27.30;43.40
43991;DHT22;29654;50.784;20.604;2023-06-22T20:42:12;27.20;43.40
43991;DHT22;29654;50.784;20.604;2023-06-22T20:47:16;27.00;43.40
43991;DHT22;29654;50.784;20.604;2023-06-22T20:52:20;26.90;43.70
43991;DHT22;29654;50.784;20.604;2023-06-22T20:57:23;26.80;43.80
43991;DHT22;29654;50.784;20.604;2023-06-22T21:02:28;26.70;44.00
43991;DHT22;29654;50.784;20.604;2023-06-22T21:07:31;26.60;44.30
43991;DHT22;29654;50.784;20.604;2023-06-22T21:12:33;26.40;44.30
43991;DHT22;29654;50.784;20.604;2023-06-22T21:17:37;26.30;44.50
43991;DHT22;29654;50.784;20.604;2023-06-22T21:22:41;26.20;44.70
43991;DHT22;29654;50.784;20.604;2023-06-22T21:27:44;26.10;44.80
43991;DHT22;29654;50.784;20.604;2023-06-22T21:32:48;26.00;45.00
43991;DHT22;29654;50.784;20.604;2023-06-22T21:37:50;25.90;45.40
43991;DHT22;29654;50.784;20.604;2023-06-22T21:42:56;25.90;45.60
43991;DHT22;29654;50.784;20.604;2023-06-22T21:48:00;25.80;45.70
43991;DHT22;29654;50.784;20.604;2023-06-22T21:53:03;25.70;45.90
43991;DHT22;29654;50.784;20.604;2023-06-22T21:58:05;25.60;46.00
43991;DHT22;29654;50.784;20.604;2023-06-22T22:03:09;25.60;46.10
43991;DHT22;29654;50.784;20.604;2023-06-22T22:08:37;25.60;46.30
43991;DHT22;29654;50.784;20.604;2023-06-22T22:13:40;25.50;46.30
43991;DHT22;29654;50.784;20.604;2023-06-22T22:18:44;25.40;46.40
43991;DHT22;29654;50.784;20.604;2023-06-22T22:23:48;25.30;46.60
43991;DHT22;29654;50.784;20.604;2023-06-22T22:28:50;25.30;46.80
43991;DHT22;29654;50.784;20.604;2023-06-22T22:33:54;25.30;46.90
43991;DHT22;29654;50.784;20.604;2023-06-22T22:38:57;25.20;46.90
43991;DHT22;29654;50.784;20.604;2023-06-22T22:43:59;25.20;47.00
43991;DHT22;29654;50.784;20.604;2023-06-22T22:49:03;25.10;47.00
43991;DHT22;29654;50.784;20.604;2023-06-22T22:54:06;25.00;47.10
43991;DHT22;29654;50.784;20.604;2023-06-22T22:59:08;25.00;47.20
43991;DHT22;29654;50.784;20.604;2023-06-22T23:04:12;24.90;47.30
43991;DHT22;29654;50.784;20.604;2023-06-22T23:09:18;24.90;47.50
43991;DHT22;29654;50.784;20.604;2023-06-22T23:14:21;24.80;47.40
43991;DHT22;29654;50.784;20.604;2023-06-22T23:19:25;24.80;47.50
43991;DHT22;29654;50.784;20.604;2023-06-22T23:24:28;24.80;47.60
43991;DHT22;29654;50.784;20.604;2023-06-22T23:29:32;24.70;47.50
43991;DHT22;29654;50.784;20.604;2023-06-22T23:34:37;24.70;47.80
43991;DHT22;29654;50.784;20.604;2023-06-22T23:39:40;24.60;47.80
43991;DHT22;29654;50.784;20.604;2023-06-22T23:44:44;24.60;47.80
43991;DHT22;29654;50.784;20.604;2023-06-22T23:49:48;24.50;47.70
43991;DHT22;29654;50.784;20.604;2023-06-22T23:54:50;24.50;47.90
43991;DHT22;29654;50.784;20.604;2023-06-22T23:59:53;24.50;47.90
